This is the latest recevied weather packets stored in our database for station/object LX2ZZ-13. If no packets are shown the sender has not sent any weather packets the latest 10 day(s).
| Time | Temp. | Humidity | Pressure | Rain* | Wind** | Luminosity | Snow |
|---|---|---|---|---|---|---|---|
| 1777787185 | 13.89° C | 60% | 1013.1 hPa | 0 mm | - | - | - |
| 1777785356 | 12.78° C | 62% | 1013 hPa | 0 mm | - | - | - |
| 1777772751 | 11.67° C | 66% | 1013.7 hPa | 0 mm | - | - | - |
| 1777765011 | 12.78° C | 74% | 1014.3 hPa | 0 mm | - | - | - |
| 1777763763 | 12.78° C | 74% | 1014.4 hPa | 0 mm | - | - | - |
| 1777762557 | 13.33° C | 70% | 1014.5 hPa | 0 mm | - | - | - |
| 1777757129 | 19.44° C | 41% | 1014.5 hPa | 0 mm | - | - | - |
| 1777756526 | 19.44° C | 41% | 1014.6 hPa | 0 mm | - | - | - |
| 1777751761 | 13.89° C | 67% | 1014.8 hPa | 0 mm | - | - | - |
| 1777748142 | 16.67° C | 63% | 1014.4 hPa | 0 mm | - | - | - |
| 1777743920 | 21.67° C | 40% | 1014.5 hPa | 0 mm | - | - | - |
| 1777742775 | 22.22° C | 39% | 1014.8 hPa | 0 mm | - | - | - |
| 1777741569 | 22.78° C | 38% | 1014.8 hPa | 0 mm | - | - | - |
| 1777738553 | 23.89° C | 37% | 1014.9 hPa | 0 mm | - | - | - |
| 1777733125 | 23.89° C | 38% | 1016 hPa | 0 mm | - | - | - |
| 1777731315 | 25.56° C | 42% | 1016.4 hPa | 0 mm | - | - | - |
| 1777730169 | 26.11° C | 39% | 1016.8 hPa | 0 mm | - | - | - |
| 1777725344 | 25.56° C | 47% | 1017.8 hPa | 0 mm | - | - | - |
| 1777724741 | 25° C | 46% | 1017.8 hPa | 0 mm | - | - | - |
| 1777722972 | 24.44° C | 51% | 1018.3 hPa | 0 mm | - | - | - |
| 1777721726 | 24.44° C | 49% | 1018.7 hPa | 0 mm | - | - | - |
| 1777719917 | 23.33° C | 49% | 1018.9 hPa | 0 mm | - | - | - |
| 1777716358 | 21.67° C | 50% | 1019.6 hPa | 0 mm | - | - | - |
| 1777712136 | 19.44° C | 63% | 1019.8 hPa | 0 mm | - | - | - |
| 1777710930 | 16.67° C | 76% | 1020 hPa | 0 mm | - | - | - |
* Rain latest hour (hover to see other rain measurements)
** Current wind speed in m/s (hover to see current wind gust speed)